Flight Track Log - Related Links

Times and Time Zones

All times are in EDT time to prevent confusion due to time zone crossing. See the JBU216 flight status page for this flight to view local times or setup timezone preferences in your user account.

Time Position Orientation Groundspeed Altitude Reporting Facility
EDT Latitude Longitude Course Direction KTS MPH feet Rate Location/Type
Sun 12:07:30 AM 33.8469 -118.2169 40° Northeast 237 273 2,300  Level Los Center
Sun 12:08:31 AM 33.7958 -118.2631 217° Southwest 233 268 5,000 2,557 Climbing Los Center
Sun 12:09:32 AM 33.7353 -118.3047 210° Southwest 239 275 7,500 2,164 Climbing Los Center
Sun 12:10:00 AM 33.7009 -118.0097 18° North  Level FlightAware
Sun 12:10:33 AM 33.6611 -118.3344 198° South 273 314 9,400  Level Los Center
Sun 12:11:00 AM 33.8235 -117.9549 23° Northeast  Level FlightAware
Sun 12:11:34 AM 33.6136 -118.2564 126° Southeast 320 368 10,900  Level Los Center
Sun 12:12:00 AM 33.9417 -117.8916 40° Northeast  Level FlightAware
Sun 12:12:35 AM 33.6731 -118.1750 49° Northeast 336 387 13,100  Level Los Center
Sun 12:13:36 AM 33.7458 -118.1028 40° Northeast 343 395 15,100 1,967 Climbing Los Center
Sun 12:14:37 AM 33.8206 -118.0294 39° Northeast 350 403 17,100 2,066 Climbing Los Center
Sun 12:15:38 AM 33.9119 -117.9378 40° Northeast 356 410 19,300 1,869 Climbing Los Center
Sun 12:16:39 AM 33.9928 -117.8622 38° Northeast 366 421 20,900 1,475 Climbing Los Center
Sun 12:17:40 AM 34.0783 -117.7867 36° Northeast 379 436 22,300 1,377 Climbing Los Center
Sun 12:18:41 AM 34.1531 -117.6908 47° Northeast 392 451 23,700 934 Climbing Los Center
Sun 12:19:42 AM 34.2286 -117.5892 48° Northeast 404 465 24,200 639 Climbing Los Center
Sun 12:20:43 AM 34.3094 -117.4792 48° Northeast 433 498 25,000 984 Climbing Los Center
Sun 12:21:44 AM 34.3953 -117.3603 49° Northeast 446 513 26,200 984 Climbing Los Center
Sun 12:22:45 AM 34.4789 -117.2450 49° Northeast 457 526 27,000 836 Climbing Los Center
Sun 12:23:46 AM 34.5653 -117.1272 48° Northeast 467 537 27,900 984 Climbing Los Center
Sun 12:24:47 AM 34.6508 -117.0075 49° Northeast 472 543 29,000 1,024 Climbing Los Center
Sun 12:25:49 AM 34.7375 -116.8881 49° Northeast 474 545 30,000 976 Climbing Los Center
Sun 12:26:50 AM 34.8231 -116.7697 49° Northeast 470 541 31,000 1,033 Climbing Los Center
Sun 12:27:51 AM 34.9075 -116.6508 49° Northeast 467 537 32,100 984 Climbing Los Center
Sun 12:28:52 AM 35.0117 -116.5119 47° Northeast 466 536 33,000 443 Climbing Los Center
Sun 12:29:53 AM 35.1006 -116.4022 45° Northeast 460 529 33,000  Level Los Center
Sun 12:30:54 AM 35.1881 -116.2925 46° Northeast 455 524 33,000  Level Los Center
Sun 12:31:55 AM 35.2764 -116.1833 45° Northeast 454 522 33,000  Level Los Center
Sun 12:32:56 AM 35.3633 -116.0714 46° Northeast 455 524 33,000  Level Los Center
Sun 12:33:57 AM 35.4514 -115.9594 46° Northeast 456 525 33,000  Level Los Center
Sun 12:34:58 AM 35.5522 -115.8350 45° Northeast 457 526 33,000  Level Los Center
Sun 12:35:59 AM 35.6400 -115.7253 45° Northeast 452 520 33,000  Level Los Center
Sun 12:37:00 AM 35.7283 -115.6122 46° Northeast 457 526 33,000  Level Los Center
Sun 12:38:01 AM 35.8150 -115.5008 46° Northeast 454 522 33,000  Level Los Center
Sun 12:39:02 AM 35.9036 -115.3875 46° Northeast 459 528 33,000  Level Los Center
Sun 12:40:03 AM 35.9903 -115.2761 46° Northeast 455 524 33,000  Level Los Center
Sun 12:41:04 AM 36.0669 -115.1522 53° Northeast 461 531 33,000  Level Los Center
Sun 12:42:04 AM 36.1283 -115.0069 62° Northeast 476 548 33,000  Level Los Center
Sun 12:43:05 AM 36.1850 -114.8183 70° East 488 562 33,000  Level Los Center
Sun 12:44:06 AM 36.2333 -114.6600 69° East 492 566 33,000  Level Los Center
Sun 12:45:07 AM 36.2831 -114.5039 68° East 489 563 33,000  Level Los Center
Sun 12:46:08 AM 36.3336 -114.3467 68° East 491 565 33,000  Level Los Center
Sun 12:47:09 AM 36.3831 -114.1894 69° East 491 565 33,000  Level Los Center
Sun 12:48:10 AM 36.4322 -114.0306 69° East 492 566 33,000  Level Los Center
Sun 12:49:11 AM 36.4822 -113.8725 68° East 493 567 33,000  Level Los Center
Sun 12:50:11 AM 36.5292 -113.7200 69° East 494 568 33,000  Level Los Center
Sun 12:51:12 AM 36.5769 -113.5592 70° East 496 571 33,000  Level Los Center
Sun 12:52:13 AM 36.6261 -113.4019 69° East 493 567 33,000  Level Los Center
Sun 12:53:14 AM 36.6853 -113.2097 69° East 496 571 33,000  Level Los Center
Sun 12:54:15 AM 36.7328 -113.0503 70° East 495 570 33,000  Level Los Center
Sun 12:55:16 AM 36.7814 -112.8911 69° East 495 570 33,000  Level Los Center
Sun 12:56:16 AM 36.8297 -112.7300 69° East 497 572 33,000  Level Los Center
Sun 12:57:17 AM 36.8797 -112.5678 69° East 502 578 33,000  Level Los Center
Sun 12:58:18 AM 36.9272 -112.4044 70° East 504 580 33,000  Level Los Center
Sun 12:59:19 AM 36.9753 -112.2403 70° East 506 582 33,000  Level Los Center
Sun 01:00:20 AM 37.0125 -112.1128 70° East 497 572 33,000  Level Los Center
Sun 01:01:20 AM 37.0703 -111.9178 70° East 500 575 33,000  Level Los Center
Sun 01:02:21 AM 37.1167 -111.7583 70° East 493 567 33,000  Level Los Center
Sun 01:03:22 AM 37.1636 -111.5944 70° East 500 575 33,000  Level Los Center
Sun 01:04:23 AM 37.2094 -111.4311 71° East 501 577 33,000  Level Los Center
Sun 01:05:23 AM 37.2661 -111.2364 70° East 498 573 33,000  Level Los Center
Sun 01:06:28 AM 37.3103 -111.0728 71° East 500 575 33,000  Level Denver Center
Sun 01:07:28 AM 37.3553 -110.9081 71° East 499 574 33,000 50 Level Denver Center
Sun 01:08:28 AM 37.4022 -110.7436 70° East 500 575 33,100  Climbing Denver Center
Sun 01:09:29 AM 37.4472 -110.5817 71° East 494 568 33,000 -50 Descending Denver Center
Sun 01:10:29 AM 37.4914 -110.4206 71° East 503 579 33,000  Level Denver Center
Sun 01:11:29 AM 37.5403 -110.2375 71° East 496 571 33,000  Level Denver Center
Sun 01:12:30 AM 37.5828 -110.0839 71° East 487 560 33,000  Level Denver Center
Sun 01:13:30 AM 37.6253 -109.9269 71° East 491 565 33,000  Level Denver Center
Sun 01:14:30 AM 37.6739 -109.7422 72° East 497 572 33,000  Level Denver Center
Sun 01:15:59 AM 37.7361 -109.5083 71° East 490 564 33,000  Level Denver Center
Sun 01:17:00 AM 37.7786 -109.3489 71° East 497 572 33,000  Level Denver Center
Sun 01:18:00 AM 37.8200 -109.1922 71° East 493 567 33,000  Level Denver Center
Sun 01:19:00 AM 37.8683 -109.0053 72° East 499 574 33,000  Level Denver Center
Sun 01:20:00 AM 37.9092 -108.8458 72° East 497 572 33,000  Level Denver Center
Sun 01:21:01 AM 37.9497 -108.6869 72° East 496 571 33,000  Level Denver Center
Sun 01:22:01 AM 37.9911 -108.5278 72° East 496 571 33,000  Level Denver Center
Sun 01:23:01 AM 38.0383 -108.3414 72° East 495 570 33,000  Level Denver Center
Sun 01:24:02 AM 38.0792 -108.1758 73° East 500 575 33,000  Level Denver Center
Sun 01:25:02 AM 38.1192 -108.0156 72° East 499 574 33,000  Level Denver Center
Sun 01:26:02 AM 38.1594 -107.8558 72° East 496 571 33,000  Level Denver Center
Sun 01:27:02 AM 38.2039 -107.6736 73° East 487 560 33,000  Level Denver Center
Sun 01:28:03 AM 38.2433 -107.5147 72° East 491 565 33,000  Level Denver Center
Sun 01:29:03 AM 38.2831 -107.3517 73° East 502 578 33,000  Level Denver Center
Sun 01:30:03 AM 38.3253 -107.1772 73° East 499 574 33,000  Level Denver Center
Sun 01:31:03 AM 38.3656 -107.0122 73° East 491 565 33,000  Level Denver Center
Sun 01:32:04 AM 38.4050 -106.8444 73° East 492 566 33,000  Level Denver Center
Sun 01:33:04 AM 38.4447 -106.6764 73° East 496 571 33,000  Level Denver Center
Sun 01:34:04 AM 38.4839 -106.5100 73° East 493 567 33,000  Level Denver Center
Sun 01:35:05 AM 38.5228 -106.3394 74° East 502 578 33,000  Level Denver Center
Sun 01:36:05 AM 38.5619 -106.1697 74° East 500 575 33,000  Level Denver Center
Sun 01:37:05 AM 38.6053 -105.9808 74° East 492 566 33,000  Level Denver Center
Sun 01:38:06 AM 38.6436 -105.8133 74° East 494 568 33,000  Level Denver Center
Sun 01:39:18 AM 38.6819 -105.6439 74° East 494 568 33,000  Level Denver Center
Sun 01:40:18 AM 38.7247 -105.4483 74° East 487 560 33,000 50 Level Denver Center
Sun 01:41:18 AM 38.7614 -105.2833 74° East 482 555 33,100  Climbing Denver Center
Sun 01:42:19 AM 38.7997 -105.1150 74° East 488 562 33,000 -50 Descending Denver Center
Sun 01:43:19 AM 38.8372 -104.9422 74° East 499 574 33,000  Level Denver Center
Sun 01:44:19 AM 38.8731 -104.7783 74° East 480 552 33,000  Level Denver Center
Sun 01:45:19 AM 38.9075 -104.6200 74° East 462 532 33,000  Level Denver Center
Sun 01:46:20 AM 38.9428 -104.4550 75° East 476 548 33,000  Level Denver Center
Sun 01:47:20 AM 38.9783 -104.2917 74° East 474 545 33,000  Level Denver Center
Sun 01:48:20 AM 39.0133 -104.1233 75° East 485 558 33,000  Level Denver Center
Sun 01:49:21 AM 39.0481 -103.9569 75° East 480 552 33,000  Level Denver Center
Sun 01:50:21 AM 39.0808 -103.7925 76° East 475 547 33,000  Level Denver Center
Sun 01:51:21 AM 39.1164 -103.6239 75° East 483 556 33,000  Level Denver Center
Sun 01:52:21 AM 39.1514 -103.4575 75° East 478 550 33,000  Level Denver Center
Sun 01:53:22 AM 39.1847 -103.2914 75° East 477 549 33,000  Level Denver Center
Sun 01:54:22 AM 39.2181 -103.1256 75° East 476 548 33,000  Level Denver Center
Sun 01:55:22 AM 39.2511 -102.9572 76° East 478 550 33,000  Level Denver Center
Sun 01:56:23 AM 39.2786 -102.8175 76° East 479 551 33,000  Level Denver Center
Sun 01:57:23 AM 39.3147 -102.6317 76° East 477 549 33,000  Level Denver Center
Sun 01:58:23 AM 39.3458 -102.4744 76° East 473 544 33,000  Level Denver Center
Sun 01:59:23 AM 39.3761 -102.3175 76° East 479 551 33,000  Level Denver Center
Sun 02:00:24 AM 39.4125 -102.1325 76° East 477 549 33,000  Level Denver Center
Sun 02:01:24 AM 39.4422 -101.9722 76° East 479 551 33,000  Level Denver Center
Sun 02:02:24 AM 39.4725 -101.8106 76° East 483 556 33,000  Level Denver Center
Sun 02:03:25 AM 39.5072 -101.6244 76° East 480 552 33,000  Level Denver Center
Sun 02:04:25 AM 39.5367 -101.4669 76° East 474 545 33,000  Level Denver Center
Sun 02:05:25 AM 39.5656 -101.3064 77° East 477 549 33,000  Level Denver Center
Sun 02:06:25 AM 39.5997 -101.1183 77° East 482 555 33,000  Level Denver Center
Sun 02:07:26 AM 39.6292 -100.9606 76° East 476 548 33,000  Level Denver Center
Sun 02:08:26 AM 39.6575 -100.7981 77° East 480 552 33,000  Level Denver Center
Sun 02:09:26 AM 39.6908 -100.6097 77° East 481 554 33,000  Level Denver Center
Sun 02:10:27 AM 39.7203 -100.4431 77° East 493 567 33,000  Level Denver Center
Sun 02:11:27 AM 39.7492 -100.2778 77° East 493 567 33,000  Level Denver Center
Sun 02:12:27 AM 39.7761 -100.1200 77° East 490 564 33,000  Level Denver Center
Sun 02:13:28 AM 39.8067 -99.9461 77° East 494 568 33,000  Level Denver Center
Sun 02:14:28 AM 39.8414 -99.7358 78° East 496 571 33,000  Level Denver Center
Sun 02:15:28 AM 39.8703 -99.5608 78° East 496 571 33,000  Level Denver Center
Sun 02:16:28 AM 39.8997 -99.3861 78° East 495 570 33,000  Level Denver Center
Sun 02:17:29 AM 39.9281 -99.2111 78° East 495 570 33,000  Level Denver Center
Sun 02:18:29 AM 39.9567 -99.0364 78° East 495 570 33,000  Level Denver Center
Sun 02:19:29 AM 39.9844 -98.8628 78° East 493 567 33,000  Level Denver Center
Sun 02:20:25 AM 40.0064 -98.7233 78° East 494 568 33,000  Level Minneapolis Center
Sun 02:21:26 AM 40.0347 -98.5483 78° East 494 568 33,000  Level Minneapolis Center
Sun 02:22:26 AM 40.0617 -98.3744 79° East 493 567 33,000  Level Minneapolis Center
Sun 02:23:26 AM 40.0881 -98.2003 79° East 491 565 33,000  Level Minneapolis Center
Sun 02:24:26 AM 40.1139 -98.0256 79° East 492 566 33,000  Level Minneapolis Center
Sun 02:25:26 AM 40.1408 -97.8517 78° East 490 564 33,000  Level Minneapolis Center
Sun 02:26:26 AM 40.1667 -97.6794 79° East 487 560 33,000  Level Minneapolis Center
Sun 02:27:27 AM 40.1922 -97.5056 79° East 487 560 33,000  Level Minneapolis Center
Sun 02:28:27 AM 40.2211 -97.3072 79° East 484 557 33,000  Level Minneapolis Center
Sun 02:29:27 AM 40.2458 -97.1375 79° East 479 551 33,000  Level Minneapolis Center
Sun 02:30:27 AM 40.2706 -96.9658 79° East 481 554 33,000  Level Minneapolis Center
Sun 02:31:27 AM 40.2942 -96.7947 80° East 480 552 33,000  Level Minneapolis Center
Sun 02:32:27 AM 40.3181 -96.6228 80° East 481 554 33,000  Level Minneapolis Center
Sun 02:33:28 AM 40.3417 -96.4522 80° East 480 552 33,000  Level Minneapolis Center
Sun 02:34:28 AM 40.3658 -96.2783 80° East 483 556 33,000  Level Minneapolis Center
Sun 02:35:28 AM 40.3889 -96.1044 80° East 485 558 33,000  Level Minneapolis Center
Sun 02:36:28 AM 40.4114 -95.9311 80° East 486 559 33,000  Level Minneapolis Center
Sun 02:37:28 AM 40.4353 -95.7564 80° East 487 560 33,000  Level Minneapolis Center
Sun 02:38:28 AM 40.4581 -95.5822 80° East 487 560 33,000  Level Minneapolis Center
Sun 02:39:29 AM 40.4803 -95.4061 81° East 488 562 33,000  Level Minneapolis Center
Sun 02:40:29 AM 40.5022 -95.2300 81° East 490 564 33,000  Level Minneapolis Center
Sun 02:41:29 AM 40.5250 -95.0539 80° East 490 564 33,000  Level Minneapolis Center
Sun 02:42:29 AM 40.5464 -94.8803 81° East 488 562 33,000  Level Minneapolis Center
Sun 02:43:29 AM 40.5681 -94.7053 81° East 487 560 33,000  Level Minneapolis Center
Sun 02:44:29 AM 40.5886 -94.5358 81° East 484 557 33,000  Level Minneapolis Center
Sun 02:45:30 AM 40.6089 -94.3633 81° East 482 555 33,000  Level Minneapolis Center
Sun 02:46:30 AM 40.6289 -94.1922 81° East 478 550 33,000  Level Minneapolis Center
Sun 02:47:30 AM 40.6481 -94.0214 82° East 477 549 33,000  Level Minneapolis Center
Sun 02:48:30 AM 40.6669 -93.8489 82° East 478 550 33,000  Level Minneapolis Center
Sun 02:49:30 AM 40.6883 -93.6750 81° East 482 555 33,000  Level Minneapolis Center
Sun 02:50:30 AM 40.7056 -93.5017 82° East 480 552 33,000  Level Minneapolis Center
Sun 02:51:31 AM 40.7250 -93.3281 82° East 481 554 33,000  Level Minneapolis Center
Sun 02:52:31 AM 40.7436 -93.1525 82° East 483 556 33,000  Level Minneapolis Center
Sun 02:53:31 AM 40.7633 -92.9753 82° East 486 559 33,000  Level Minneapolis Center
Sun 02:54:01 AM 40.7739 -92.8689 83° East 485 558 33,000  Level Chicago Center
Sun 02:55:01 AM 40.7933 -92.6908 82° East 489 563 33,000  Level Chicago Center
Sun 02:56:01 AM 40.8114 -92.5139 82° East 488 562 33,000  Level Chicago Center
Sun 02:57:01 AM 40.8292 -92.3372 82° East 488 562 33,000  Level Chicago Center
Sun 02:58:01 AM 40.8464 -92.1619 83° East 485 558 33,000  Level Chicago Center
Sun 02:59:01 AM 40.8644 -91.9842 82° East 489 563 33,000  Level Chicago Center
Sun 03:00:02 AM 40.8814 -91.8058 83° East 491 565 33,000  Level Chicago Center
Sun 03:01:02 AM 40.8989 -91.6294 82° East 488 562 33,000  Level Chicago Center
Sun 03:02:03 AM 40.9144 -91.4508 83° East 490 564 33,000  Level Chicago Center
Sun 03:03:03 AM 40.9314 -91.2778 83° East 491 565 33,000  Level Chicago Center
Sun 03:04:03 AM 40.9458 -91.0983 84° East 490 564 33,000  Level Chicago Center
Sun 03:05:04 AM 40.9622 -90.9172 83° East 494 568 33,000  Level Chicago Center
Sun 03:06:04 AM 40.9783 -90.7378 83° East 492 566 33,000  Level Chicago Center
Sun 03:07:04 AM 40.9933 -90.5583 84° East 490 564 33,000  Level Chicago Center
Sun 03:08:04 AM 41.0083 -90.3764 84° East 494 568 33,000  Level Chicago Center
Sun 03:09:04 AM 41.0231 -90.1967 84° East 489 563 33,000  Level Chicago Center
Sun 03:10:04 AM 41.0389 -90.0150 83° East 491 565 33,000  Level Chicago Center
Sun 03:11:04 AM 41.0525 -89.8328 84° East 492 566 33,000  Level Chicago Center
Sun 03:12:04 AM 41.0658 -89.6497 84° East 494 568 33,000  Level Chicago Center
Sun 03:13:05 AM 41.0803 -89.4686 84° East 491 565 33,000  Level Chicago Center
Sun 03:14:05 AM 41.0928 -89.2864 85° East 493 567 33,000  Level Chicago Center
Sun 03:15:05 AM 41.1036 -89.1278 85° East 493 567 33,000  Level Chicago Center
Sun 03:16:05 AM 41.1175 -88.9472 84° East 494 568 33,000  Level Chicago Center
Sun 03:17:05 AM 41.1283 -88.7686 85° East 492 566 33,000  Level Chicago Center
Sun 03:18:05 AM 41.1408 -88.5878 85° East 496 571 33,000  Level Chicago Center
Sun 03:19:05 AM 41.1564 -88.3742 84° East 491 565 33,000  Level Chicago Center
Sun 03:20:06 AM 41.1678 -88.1969 85° East 491 565 33,000  Level Chicago Center
Sun 03:21:06 AM 41.1778 -88.0206 86° East 490 564 33,000  Level Chicago Center
Sun 03:22:06 AM 41.1889 -87.8422 85° East 493 567 33,000  Level Chicago Center
Sun 03:23:06 AM 41.2003 -87.6628 85° East 495 570 33,000  Level Chicago Center
Sun 03:24:06 AM 41.2103 -87.4808 86° East 498 573 33,000  Level Chicago Center
Sun 03:25:06 AM 41.2217 -87.3019 85° East 492 566 33,000  Level Chicago Center
Sun 03:26:06 AM 41.2317 -87.1206 86° East 495 570 33,000  Level Chicago Center
Sun 03:27:07 AM 41.2400 -86.9403 86° East 493 567 33,000  Level Chicago Center
Sun 03:28:07 AM 41.2489 -86.7569 86° East 498 573 33,000  Level Chicago Center
Sun 03:29:07 AM 41.2564 -86.5889 87° East 499 574 33,000  Level Chicago Center
Sun 03:30:07 AM 41.2658 -86.4075 86° East 497 572 33,000  Level Chicago Center
Sun 03:31:07 AM 41.2761 -86.1872 86° East 499 574 33,000  Level Chicago Center
Sun 03:32:07 AM 41.2842 -86.0031 87° East 502 578 33,000  Level Chicago Center
Sun 03:33:07 AM 41.2914 -85.8203 87° East 500 575 33,000  Level Chicago Center
Sun 03:34:08 AM 41.2992 -85.6367 87° East 503 579 33,000  Level Chicago Center
Sun 03:35:08 AM 41.3064 -85.4536 87° East 502 578 33,000  Level Chicago Center
Sun 03:36:08 AM 41.3128 -85.2722 87° East 502 578 33,000  Level Chicago Center
Sun 03:37:08 AM 41.3203 -85.0894 87° East 503 579 33,000  Level Chicago Center
Sun 03:38:08 AM 41.3258 -84.9061 88° East 501 577 33,000  Level Chicago Center
Sun 03:39:09 AM 41.3328 -84.7203 87° East 506 582 33,000  Level Chicago Center
Sun 03:40:09 AM 41.3369 -84.5375 88° East 501 577 33,000  Level Chicago Center
Sun 03:41:09 AM 41.3425 -84.3514 88° East 505 581 33,000  Level Chicago Center
Sun 03:42:09 AM 41.3481 -84.1653 88° East 506 582 33,000  Level Chicago Center
Sun 03:42:35 AM 41.3483 -84.0658 90° East 498 573 33,000  Level Cleveland Center
Sun 03:43:35 AM 41.3539 -83.8778 88° East 498 573 33,000  Level Cleveland Center
Sun 03:44:35 AM 41.3592 -83.6900 88° East 498 573 33,000  Level Cleveland Center
Sun 03:45:35 AM 41.3642 -83.4992 88° East 503 579 33,000  Level Cleveland Center
Sun 03:46:35 AM 41.3664 -83.3250 89° East 514 592 33,000  Level Cleveland Center
Sun 03:47:35 AM 41.3711 -83.1150 88° East 514 592 33,000 350 Level Cleveland Center
Sun 03:48:35 AM 41.3753 -82.9242 88° East 512 589 33,700 950 Climbing Cleveland Center
Sun 03:49:35 AM 41.3767 -82.7389 89° East 512 589 34,900 650 Climbing Cleveland Center
Sun 03:50:35 AM 41.3822 -82.5481 88° East 507 583 35,000 50 Climbing Cleveland Center
Sun 03:51:35 AM 41.3856 -82.3572 89° East 512 589 35,000  Level Cleveland Center
Sun 03:52:35 AM 41.3861 -82.1661 90° East 513 590 35,000  Level Cleveland Center
Sun 03:53:35 AM 41.3883 -81.9947 89° East 513 590 35,000  Level Cleveland Center
Sun 03:54:35 AM 41.3906 -81.8064 89° East 513 590 35,000  Level Cleveland Center
Sun 03:55:35 AM 41.3928 -81.5906 89° East 521 600 35,000  Level Cleveland Center
Sun 03:56:35 AM 41.3922 -81.3997 90° East 521 600 35,000  Level Cleveland Center
Sun 03:57:35 AM 41.3933 -81.2031 90° East 516 594 35,000  Level Cleveland Center
Sun 03:58:35 AM 41.3922 -81.0122 90° East 516 594 35,000  Level Cleveland Center
Sun 03:59:35 AM 41.3928 -80.8183 90° East 521 600 35,000  Level Cleveland Center
Sun 04:00:35 AM 41.3931 -80.6219 90° East 521 600 35,000  Level Cleveland Center
Sun 04:01:35 AM 41.3928 -80.4281 90° East 521 600 35,000  Level Cleveland Center
Sun 04:02:35 AM 41.3925 -80.2289 90° East 521 600 35,000  Level Cleveland Center
Sun 04:03:35 AM 41.3917 -80.0572 90° East 521 600 35,000  Level Cleveland Center
Sun 04:04:35 AM 41.3886 -79.8442 91° East 515 593 35,000  Level Cleveland Center
Sun 04:05:35 AM 41.3872 -79.6478 90° East 515 593 35,000  Level Cleveland Center
Sun 04:06:35 AM 41.3856 -79.4678 91° East 520 598 35,000  Level Cleveland Center
Sun 04:07:35 AM 41.3811 -79.2547 92° East 526 605 35,000  Level Cleveland Center
Sun 04:08:35 AM 41.3786 -79.0583 91° East 531 611 35,000  Level Cleveland Center
Sun 04:09:35 AM 41.3761 -78.8814 91° East 536 617 35,000  Level Cleveland Center
Sun 04:10:35 AM 41.4083 -78.6728 78° East 522 601 35,000  Level Cleveland Center
Sun 04:11:35 AM 41.4700 -78.5047 64° Northeast 504 580 35,000 50 Level Cleveland Center
Sun 04:12:35 AM 41.5144 -78.3203 72° East 509 586 35,100  Climbing Cleveland Center
Sun 04:13:21 AM 41.4986 -78.1778 98° East 555 639 35,000 -55 Descending New Center
Sun 04:14:24 AM 41.4344 -78.0019 116° Southeast 519 597 35,000 -50 Level New Center
Sun 04:15:21 AM 41.3742 -77.8294 115° Southeast 519 597 34,900  Descending New Center
Sun 04:16:21 AM 41.3625 -77.6347 95° East 512 589 35,000 -300 Climbing New Center
Sun 04:17:21 AM 41.3547 -77.4433 93° East 512 589 34,300 -850 Descending New Center
Sun 04:18:21 AM 41.3464 -77.2544 93° East 512 589 33,300 -927 Descending New Center
Sun 04:19:24 AM 41.3397 -77.0714 93° East 507 583 32,400 -950 Descending New Center
Sun 04:20:21 AM 41.3308 -76.8797 93° East 507 583 31,400 -718 Descending New Center
Sun 04:21:21 AM 41.3219 -76.6856 93° East 512 589 31,000 -200 Descending New Center
Sun 04:22:21 AM 41.3128 -76.4942 94° East 517 595 31,000  Level New Center
Sun 04:23:23 AM 41.3042 -76.3194 94° East 522 601 31,000  Level New Center
Sun 04:24:21 AM 41.2944 -76.1253 94° East 523 602 31,000 -250 Level New Center
Sun 04:25:23 AM 41.2861 -75.9369 93° East 523 602 30,500 -1,100 Descending New Center
Sun 04:26:21 AM 41.2714 -75.7481 96° East 518 596 28,800 -2,186 Descending New Center
Sun 04:27:21 AM 41.2292 -75.5600 107° East 518 596 26,200 -2,479 Descending New Center
Sun 04:28:22 AM 41.1733 -75.3908 114° Southeast 513 590 23,800 -1,574 Descending New Center
Sun 04:29:23 AM 41.1153 -75.2189 114° Southeast 508 585 23,000 -393 Descending New Center
Sun 04:30:24 AM 41.0589 -75.0528 114° Southeast 503 579 23,000  Level New Center
Sun 04:31:22 AM 41.0022 -74.8869 114° Southeast 498 573 23,000 -205 Level New Center
Sun 04:32:21 AM 40.9794 -74.7042 99° East 498 573 22,600 -694 Descending New Center
Sun 04:33:23 AM 40.9603 -74.5217 98° East 493 567 21,600 -1,500 Descending New Center
Sun 04:34:21 AM 40.9372 -74.3308 99° East 488 562 19,600 -1,322 Descending New Center
Sun 04:35:21 AM 40.9186 -74.1789 99° East 467 537 19,000 -900 Descending New Center
Sun 04:36:21 AM 40.8511 -74.0658 128° Southeast 392 451 17,800 -1,300 Descending New Center
Sun 04:37:21 AM 40.7753 -74.0156 153° Southeast 339 390 16,400 -1,488 Descending New Center
Sun 04:38:22 AM 40.6811 -73.9592 156° South 334 384 14,800 -1,450 Descending New Center
Sun 04:39:21 AM 40.6072 -73.9175 157° South 329 379 13,500 -1,628 Descending New Center
Sun 04:40:31 AM 40.5167 -73.8667 157° South 285 328 11,300 -2,029 Descending New TRACON
Sun 04:41:37 AM 40.4333 -73.8167 155° Southeast 279 321 8,900 -2,143 Descending New TRACON
Sun 04:42:37 AM 40.3667 -73.7667 150° Southeast 289 333 6,800 -2,050 Descending New TRACON
Sun 04:43:37 AM 40.4167 -73.6833 52° Northeast 288 331 4,800 -1,750 Descending New TRACON
Sun 04:44:37 AM 40.4667 -73.6167 45° Northeast 268 308 3,300 -900 Descending New TRACON
Sun 04:45:37 AM 40.5333 -73.5833 21° North 244 281 3,000 -283 Descending New TRACON
Sun 04:46:44 AM 40.5833 -73.6167 333° Northwest 174 200 2,700 -567 Descending New TRACON
Sun 04:47:44 AM 40.6000 -73.6667 294° West 153 176 1,800 -800 Descending New TRACON
Sun 04:48:44 AM 40.6167 -73.7000 303° West 127 146 1,100 -700 Descending New TRACON
Sun 04:49:44 AM 40.6333 -73.7500 294° West 134 154 400 -700 Descending New TRACON
Sun 04:51:00 AM 40.6333 -73.7667 306° West  Level FlightAware
Sun 04:58:00 AM 40.6398 -73.7789 306° West  Level Estimated
Sun 04:59:00 AM 40.6398 -73.7789 306° West  Level Estimated

Login

Don't have an account? Register now (free) for customized features, flight alerts, and more!